Time;durP1;ratioP1;P1;durP2;ratioP2;P2;SDS_P1;SDS_P2;PMS_P1;PMS_P2;Temp;Humidity;BMP_temperature;BMP_pressure;BME280_temperature;BME280_humidity;BME280_pressure;Samples;Min_cycle;Max_cycle;Signal;HPM_P1;HPM_P2
2022/10/13 00:00:32;;;;;;;;;;;;;;;;;;5074726;28;20007;-93
2022/10/13 00:02:58;;;;;;;;;;;;;;;;;;5091323;28;20071;-93
2022/10/13 00:05:23;;;;;;;;;;;;;;;;;;5057404;28;20317;-94
2022/10/13 00:07:48;;;;;;;;;;;;;;;;;;5040105;28;19916;-92
2022/10/13 00:10:14;;;;;;;;;;;;;;;;;;5092553;28;19987;-94
2022/10/13 00:12:39;;;;;;;;;;;;;;;;;;5074337;28;20355;-93
2022/10/13 00:15:07;;;;;;;;;;;;;;;;;;5042162;28;20003;-93
2022/10/13 00:17:32;;;;;;;;;;;;;;;;;;5057725;28;20013;-93
2022/10/13 00:19:58;;;;;;;;;;;;;;;;;;5057929;28;20430;-92
2022/10/13 00:22:23;;;;;;;;;;;;;;;;;;5092587;28;19922;-92
2022/10/13 00:24:48;;;;;;;;;;;;;;;;;;5094316;28;19912;-92
2022/10/13 00:27:15;;;;;;;;;;;;;;;;;;5076692;28;20428;-93
2022/10/13 00:29:40;;;;;;;;;;;;;;;;;;5093723;28;19912;-92
2022/10/13 00:32:05;;;;;;;;;;;;;;;;;;5093142;28;20378;-93
2022/10/13 00:34:31;;;;;;;;;;;;;;;;;;5091803;28;19916;-92
2022/10/13 00:36:56;;;;;;;;;;;;;;;;;;5094479;28;19931;-92
2022/10/13 00:39:23;;;;;;;;;;;;;;;;;;5076978;28;19912;-92
2022/10/13 00:41:48;;;;;;;;;;;;;;;;;;5061917;28;20494;-93
2022/10/13 00:44:13;;;;;;;;;;;;;;;;;;5099318;28;19916;-93
2022/10/13 00:46:39;;;;;;;;;;;;;;;;;;5086224;28;19912;-92
2022/10/13 00:49:04;;;;;;;;;;;;;;;;;;5103563;28;19947;-91
2022/10/13 00:51:29;;;;;;;;;;;;;;;;;;5101666;28;19912;-92
2022/10/13 00:53:55;;;;;;;;;;;;;;;;;;5101954;28;19908;-92
2022/10/13 00:56:21;;;;;;;;;;;;;;;;;;5063351;28;20003;-93
2022/10/13 00:58:46;;;;;;;;;;;;;;;;;;5080024;28;19996;-92
2022/10/13 01:01:12;;;;;;;;;;;;;;;;;;5081544;28;19966;-92
2022/10/13 01:03:38;;;;;;;;;;;;;;;;;;5062956;28;20276;-94
2022/10/13 01:06:03;;;;;;;;;;;;;;;;;;5062349;28;19916;-91
2022/10/13 01:08:29;;;;;;;;;;;;;;;;;;5073970;28;19961;-91
2022/10/13 01:10:56;;;;;;;;;;;;;;;;;;5076808;28;19917;-92
2022/10/13 01:13:22;;;;;;;;;;;;;;;;;;5076182;28;19912;-93
2022/10/13 01:15:47;;;;;;;;;;;;;;;;;;5076248;28;20440;-90
2022/10/13 01:18:12;;;;;;;;;;;;;;;;;;5073813;28;19913;-92
2022/10/13 01:20:38;;;;;;;;;;;;;;;;;;5072706;28;19937;-92
2022/10/13 01:23:04;;;;;;;;;;;;;;;;;;5072164;28;19916;-90
2022/10/13 01:25:29;;;;;;;;;;;;;;;;;;5073992;28;19912;-92
2022/10/13 01:27:55;;;;;;;;;;;;;;;;;;5072290;28;19919;-91
2022/10/13 01:30:20;;;;;;;;;;;;;;;;;;5071927;28;19913;-91
2022/10/13 01:32:45;;;;;;;;;;;;;;;;;;5072201;28;19916;-92
2022/10/13 01:35:11;;;;;;;;;;;;;;;;;;5071608;28;20341;-92
2022/10/13 01:37:36;;;;;;;;;;;;;;;;;;5088302;28;19917;-90
2022/10/13 01:40:01;;;;;;;;;;;;;;;;;;5071977;28;19920;-91
2022/10/13 01:42:27;;;;;;;;;;;;;;;;;;5072308;28;19923;-90
2022/10/13 01:44:52;;;;;;;;;;;;;;;;;;5087340;28;20003;-90
2022/10/13 01:47:17;;;;;;;;;;;;;;;;;;5071412;28;19918;-91
2022/10/13 01:49:43;;;;;;;;;;;;;;;;;;5088502;28;19912;-91
2022/10/13 01:52:08;;;;;;;;;;;;;;;;;;5071730;28;19919;-91
2022/10/13 01:54:34;;;;;;;;;;;;;;;;;;5072746;28;19912;-91
2022/10/13 01:56:59;;;;;;;;;;;;;;;;;;5096275;28;19943;-91
2022/10/13 01:59:24;;;;;;;;;;;;;;;;;;5091362;28;19916;-90
2022/10/13 02:01:50;;;;;;;;;;;;;;;;;;5097595;28;19912;-92
2022/10/13 02:04:19;;;;;;;;;;;;;;;;;;5064550;28;19916;-92
2022/10/13 02:06:44;;;;;;;;;;;;;;;;;;5098459;28;19920;-91
2022/10/13 02:09:10;;;;;;;;;;;;;;;;;;5065896;28;20276;-92
2022/10/13 02:11:36;;;;;;;;;;;;;;;;;;5081142;28;19912;-93
2022/10/13 02:14:01;;;;;;;;;;;;;;;;;;5097238;28;19912;-91
2022/10/13 02:16:27;;;;;;;;;;;;;;;;;;5079522;28;20420;-93
2022/10/13 02:18:52;;;;;;;;;;;;;;;;;;5098705;28;19967;-93
2022/10/13 02:21:17;;;;;;;;;;;;;;;;;;5063030;28;19908;-90
2022/10/13 02:23:43;;;;;;;;;;;;;;;;;;5095787;28;19919;-91
2022/10/13 02:26:08;;;;;;;;;;;;;;;;;;5079679;28;19923;-92
2022/10/13 02:28:33;;;;;;;;;;;;;;;;;;5078298;28;19919;-93
2022/10/13 02:30:59;;;;;;;;;;;;;;;;;;5079019;28;20334;-93
2022/10/13 02:33:24;;;;;;;;;;;;;;;;;;5086562;28;19916;-92
2022/10/13 02:35:49;;;;;;;;;;;;;;;;;;5076976;28;19917;-92
2022/10/13 02:38:15;;;;;;;;;;;;;;;;;;5059381;28;19919;-90
2022/10/13 02:40:40;;;;;;;;;;;;;;;;;;5091854;28;19920;-91
2022/10/13 02:43:06;;;;;;;;;;;;;;;;;;5074602;28;19920;-92
2022/10/13 02:45:31;;;;;;;;;;;;;;;;;;5075988;28;19920;-92
2022/10/13 02:47:57;;;;;;;;;;;;;;;;;;5077237;28;19920;-92
2022/10/13 02:50:22;;;;;;;;;;;;;;;;;;5066455;28;19913;-92
2022/10/13 02:52:49;;;;;;;;;;;;;;;;;;5077336;28;19912;-91
2022/10/13 02:55:14;;;;;;;;;;;;;;;;;;5075263;28;20368;-92
2022/10/13 02:57:42;;;;;;;;;;;;;;;;;;5091334;28;19999;-91
2022/10/13 03:00:07;;;;;;;;;;;;;;;;;;5076956;28;19952;-93
2022/10/13 03:02:33;;;;;;;;;;;;;;;;;;5077926;28;19917;-93
2022/10/13 03:04:58;;;;;;;;;;;;;;;;;;5060746;28;19912;-93
2022/10/13 03:07:24;;;;;;;;;;;;;;;;;;5096165;28;20003;-95
2022/10/13 03:09:49;;;;;;;;;;;;;;;;;;5093637;28;20276;-92
2022/10/13 03:12:14;;;;;;;;;;;;;;;;;;5095195;28;19900;-90
2022/10/13 03:14:40;;;;;;;;;;;;;;;;;;5082752;28;19912;-94
2022/10/13 03:17:05;;;;;;;;;;;;;;;;;;5079673;28;19919;-93
2022/10/13 03:19:30;;;;;;;;;;;;;;;;;;5079127;28;19966;-91
2022/10/13 03:21:56;;;;;;;;;;;;;;;;;;5096179;28;19947;-89
2022/10/13 03:24:21;;;;;;;;;;;;;;;;;;5093842;28;20268;-91
2022/10/13 03:26:46;;;;;;;;;;;;;;;;;;5077215;28;19934;-91
2022/10/13 03:29:13;;;;;;;;;;;;;;;;;;5093510;28;19919;-90
2022/10/13 03:31:38;;;;;;;;;;;;;;;;;;5094819;28;19912;-90
2022/10/13 03:34:04;;;;;;;;;;;;;;;;;;5092970;28;20031;-91
2022/10/13 03:36:29;;;;;;;;;;;;;;;;;;5094786;28;19969;-92
2022/10/13 03:38:55;;;;;;;;;;;;;;;;;;5093606;28;19908;-91
2022/10/13 03:41:21;;;;;;;;;;;;;;;;;;5056374;28;20264;-90
2022/10/13 03:43:48;;;;;;;;;;;;;;;;;;5072958;28;19922;-91
2022/10/13 03:46:13;;;;;;;;;;;;;;;;;;5073420;28;19991;-91
2022/10/13 03:48:39;;;;;;;;;;;;;;;;;;5073524;28;19992;-91
2022/10/13 03:51:05;;;;;;;;;;;;;;;;;;5074372;28;19912;-91
2022/10/13 03:53:30;;;;;;;;;;;;;;;;;;5073186;28;20011;-91
2022/10/13 03:55:56;;;;;;;;;;;;;;;;;;5074815;28;20410;-90
2022/10/13 03:58:22;;;;;;;;;;;;;;;;;;5075075;28;19919;-94
2022/10/13 04:00:51;;;;;;;;;;;;;;;;;;5091618;28;20356;-93
2022/10/13 04:03:17;;;;;;;;;;;;;;;;;;5056257;28;19923;-91
2022/10/13 04:05:42;;;;;;;;;;;;;;;;;;5089620;28;20375;-90
2022/10/13 04:08:07;;;;;;;;;;;;;;;;;;5075870;28;19916;-90
2022/10/13 04:10:33;;;;;;;;;;;;;;;;;;5056186;28;19938;-90
2022/10/13 04:12:58;;;;;;;;;;;;;;;;;;5055726;28;20287;-90
2022/10/13 04:15:24;;;;;;;;;;;;;;;;;;5058369;28;20411;-92
2022/10/13 04:17:50;;;;;;;;;;;;;;;;;;5059237;28;19998;-92
2022/10/13 04:20:15;;;;;;;;;;;;;;;;;;5059298;28;19951;-91
2022/10/13 04:22:41;;;;;;;;;;;;;;;;;;5076278;28;20011;-91
2022/10/13 04:25:06;;;;;;;;;;;;;;;;;;5093927;28;19916;-90
2022/10/13 04:27:31;;;;;;;;;;;;;;;;;;5094146;28;19951;-91
2022/10/13 04:29:57;;;;;;;;;;;;;;;;;;5093893;28;19913;-91
2022/10/13 04:32:22;;;;;;;;;;;;;;;;;;5074423;28;20458;-90
2022/10/13 04:34:47;;;;;;;;;;;;;;;;;;5093975;28;19912;-92
2022/10/13 04:37:13;;;;;;;;;;;;;;;;;;5076088;28;19943;-90
2022/10/13 04:39:38;;;;;;;;;;;;;;;;;;5092836;28;19955;-92
2022/10/13 04:42:04;;;;;;;;;;;;;;;;;;5059291;28;19950;-91
2022/10/13 04:44:29;;;;;;;;;;;;;;;;;;5091985;28;19916;-90
2022/10/13 04:46:55;;;;;;;;;;;;;;;;;;5093506;28;19912;-91
2022/10/13 04:49:20;;;;;;;;;;;;;;;;;;5092599;28;19926;-91
2022/10/13 04:51:46;;;;;;;;;;;;;;;;;;5092532;28;20381;-91
2022/10/13 04:54:11;;;;;;;;;;;;;;;;;;5094287;28;19919;-89
2022/10/13 04:56:37;;;;;;;;;;;;;;;;;;5094336;28;19947;-89
2022/10/13 04:59:04;;;;;;;;;;;;;;;;;;5093847;28;19913;-91
2022/10/13 05:01:29;;;;;;;;;;;;;;;;;;5092526;28;19912;-92
2022/10/13 05:03:55;;;;;;;;;;;;;;;;;;5076082;28;19912;-92
2022/10/13 05:06:20;;;;;;;;;;;;;;;;;;5092458;28;19912;-92
2022/10/13 05:08:47;;;;;;;;;;;;;;;;;;5093569;28;20465;-91
2022/10/13 05:11:14;;;;;;;;;;;;;;;;;;5093224;28;19965;-91
2022/10/13 05:13:40;;;;;;;;;;;;;;;;;;5094500;28;20391;-91
2022/10/13 05:16:05;;;;;;;;;;;;;;;;;;5092700;28;19912;-92
2022/10/13 05:18:31;;;;;;;;;;;;;;;;;;5093238;28;19912;-91
2022/10/13 05:20:57;;;;;;;;;;;;;;;;;;5076677;28;19987;-93
2022/10/13 05:23:24;;;;;;;;;;;;;;;;;;5073133;28;20422;-93
2022/10/13 05:25:49;;;;;;;;;;;;;;;;;;5065939;28;19919;-91
2022/10/13 05:28:16;;;;;;;;;;;;;;;;;;5070043;28;19913;-91
2022/10/13 05:30:42;;;;;;;;;;;;;;;;;;5065598;28;19953;-92
2022/10/13 05:33:08;;;;;;;;;;;;;;;;;;5061526;28;19912;-92
2022/10/13 05:35:33;;;;;;;;;;;;;;;;;;5042035;28;20366;-92
2022/10/13 05:37:58;;;;;;;;;;;;;;;;;;5055811;28;20329;-93
2022/10/13 05:40:24;;;;;;;;;;;;;;;;;;5088101;28;20268;-92
2022/10/13 05:42:53;;;;;;;;;;;;;;;;;;5071065;28;20440;-92
2022/10/13 05:45:19;;;;;;;;;;;;;;;;;;5077705;28;19913;-94
2022/10/13 05:47:45;;;;;;;;;;;;;;;;;;5094927;28;19966;-94
2022/10/13 05:50:10;;;;;;;;;;;;;;;;;;5062170;28;20260;-92
2022/10/13 05:52:38;;;;;;;;;;;;;;;;;;5072796;28;19934;-93
2022/10/13 05:55:03;;;;;;;;;;;;;;;;;;5055898;28;19913;-94
2022/10/13 05:57:29;;;;;;;;;;;;;;;;;;5039125;28;20023;-94
2022/10/13 05:59:54;;;;;;;;;;;;;;;;;;5040983;28;20279;-90
2022/10/13 06:02:19;;;;;;;;;;;;;;;;;;5073666;28;20402;-93
2022/10/13 06:04:45;;;;;;;;;;;;;;;;;;5074718;28;19919;-92
2022/10/13 06:07:11;;;;;;;;;;;;;;;;;;5055886;28;20448;-93
2022/10/13 06:09:37;;;;;;;;;;;;;;;;;;5042211;28;19966;-92
2022/10/13 06:12:02;;;;;;;;;;;;;;;;;;5073302;28;19913;-93
2022/10/13 06:14:28;;;;;;;;;;;;;;;;;;5090510;28;19913;-92
2022/10/13 06:16:53;;;;;;;;;;;;;;;;;;5061734;28;19912;-94
2022/10/13 06:19:18;;;;;;;;;;;;;;;;;;5074910;28;19912;-92
2022/10/13 06:21:44;;;;;;;;;;;;;;;;;;5073161;28;19917;-92
2022/10/13 06:24:09;;;;;;;;;;;;;;;;;;5055038;28;19920;-90
2022/10/13 06:26:34;;;;;;;;;;;;;;;;;;5075499;28;19919;-93
2022/10/13 06:29:00;;;;;;;;;;;;;;;;;;5074984;28;20287;-92
2022/10/13 06:31:25;;;;;;;;;;;;;;;;;;5080882;28;19962;-92
2022/10/13 06:33:51;;;;;;;;;;;;;;;;;;5066975;28;19939;-91
2022/10/13 06:36:17;;;;;;;;;;;;;;;;;;5088391;28;20339;-91
2022/10/13 06:38:42;;;;;;;;;;;;;;;;;;5063405;28;19995;-93
2022/10/13 06:41:07;;;;;;;;;;;;;;;;;;5077437;28;20299;-94
2022/10/13 06:43:34;;;;;;;;;;;;;;;;;;5062660;28;20000;-91
2022/10/13 06:46:01;;;;;;;;;;;;;;;;;;5071884;28;19912;-94
2022/10/13 06:48:26;;;;;;;;;;;;;;;;;;5066786;28;20236;-93
2022/10/13 06:50:52;;;;;;;;;;;;;;;;;;5064576;28;19916;-92
2022/10/13 06:53:17;;;;;;;;;;;;;;;;;;5067378;28;19920;-93
2022/10/13 06:55:42;;;;;;;;;;;;;;;;;;5098236;28;20406;-91
2022/10/13 06:58:08;;;;;;;;;;;;;;;;;;5075139;28;19912;-93
2022/10/13 07:00:33;;;;;;;;;;;;;;;;;;5099409;28;20382;-90
2022/10/13 07:02:59;;;;;;;;;;;;;;;;;;5066600;28;20402;-91
2022/10/13 07:05:24;;;;;;;;;;;;;;;;;;5089502;28;19957;-92
2022/10/13 07:07:49;;;;;;;;;;;;;;;;;;5082429;28;19916;-92
2022/10/13 07:10:15;;;;;;;;;;;;;;;;;;5080775;28;19919;-95
2022/10/13 07:12:40;;;;;;;;;;;;;;;;;;5077725;28;20019;-94
2022/10/13 07:15:05;;;;;;;;;;;;;;;;;;5068267;28;20286;-93
2022/10/13 07:17:31;;;;;;;;;;;;;;;;;;5076946;28;19950;-93
2022/10/13 07:19:56;;;;;;;;;;;;;;;;;;5062283;28;19966;-91
2022/10/13 07:22:22;;;;;;;;;;;;;;;;;;5045417;28;19963;-93
2022/10/13 07:24:47;;;;;;;;;;;;;;;;;;5098538;28;19912;-93
2022/10/13 07:27:13;;;;;;;;;;;;;;;;;;5105045;28;19916;-93
2022/10/13 07:29:38;;;;;;;;;;;;;;;;;;5117969;28;19919;-93
2022/10/13 07:32:04;;;;;;;;;;;;;;;;;;5068548;28;19912;-93
2022/10/13 07:34:30;;;;;;;;;;;;;;;;;;5071598;28;19987;-94
2022/10/13 07:36:55;;;;;;;;;;;;;;;;;;5100491;28;19911;-93
2022/10/13 07:39:24;;;;;;;;;;;;;;;;;;5076547;28;19913;-92
2022/10/13 07:41:49;;;;;;;;;;;;;;;;;;5099079;28;19911;-93
2022/10/13 07:44:15;;;;;;;;;;;;;;;;;;5098866;28;19941;-94
2022/10/13 07:46:40;;;;;;;;;;;;;;;;;;5094257;28;19912;-92
2022/10/13 07:49:06;;;;;;;;;;;;;;;;;;5108408;28;19968;-95
2022/10/13 07:51:31;;;;;;;;;;;;;;;;;;5071104;28;20276;-94
2022/10/13 07:53:57;;;;;;;;;;;;;;;;;;5055279;28;19934;-93
2022/10/13 07:56:22;;;;;;;;;;;;;;;;;;5103303;28;19912;-94
2022/10/13 07:58:48;;;;;;;;;;;;;;;;;;5090088;28;20006;-95
2022/10/13 08:01:13;;;;;;;;;;;;;;;;;;5095689;28;20411;-94
2022/10/13 08:03:38;;;;;;;;;;;;;;;;;;5089465;28;19986;-94
2022/10/13 08:06:04;;;;;;;;;;;;;;;;;;5093816;28;19923;-92
2022/10/13 08:08:29;;;;;;;;;;;;;;;;;;5112682;28;19916;-93
2022/10/13 08:10:54;;;;;;;;;;;;;;;;;;5102021;28;19918;-94
2022/10/13 08:13:22;;;;;;;;;;;;;;;;;;5074515;28;19912;-94
2022/10/13 08:15:47;;;;;;;;;;;;;;;;;;5091568;28;19919;-94
2022/10/13 08:18:13;;;;;;;;;;;;;;;;;;5084689;28;20401;-95
2022/10/13 08:20:38;;;;;;;;;;;;;;;;;;5087087;28;19912;-93
2022/10/13 08:23:03;;;;;;;;;;;;;;;;;;5066131;28;19918;-93
2022/10/13 08:25:29;;;;;;;;;;;;;;;;;;5107777;28;19934;-93
2022/10/13 08:27:55;;;;;;;;;;;;;;;;;;5098307;28;19933;-94
2022/10/13 08:30:20;;;;;;;;;;;;;;;;;;5109141;28;19935;-94
2022/10/13 08:32:46;;;;;;;;;;;;;;;;;;5062059;28;19935;-93
2022/10/13 08:35:11;;;;;;;;;;;;;;;;;;5074345;28;19961;-91
2022/10/13 08:37:37;;;;;;;;;;;;;;;;;;5065878;28;19924;-95
2022/10/13 08:40:02;;;;;;;;;;;;;;;;;;5078902;28;19913;-92
2022/10/13 08:42:27;;;;;;;;;;;;;;;;;;5106725;28;20333;-92
2022/10/13 08:44:53;;;;;;;;;;;;;;;;;;5085125;28;19963;-92
2022/10/13 08:47:18;;;;;;;;;;;;;;;;;;5074562;28;19912;-93
2022/10/13 08:49:45;;;;;;;;;;;;;;;;;;5102699;28;19912;-94
2022/10/13 08:52:10;;;;;;;;;;;;;;;;;;5096158;28;19912;-91
2022/10/13 08:54:35;;;;;;;;;;;;;;;;;;5104258;28;20335;-92
2022/10/13 08:57:01;;;;;;;;;;;;;;;;;;5055730;28;19912;-93
2022/10/13 08:59:26;;;;;;;;;;;;;;;;;;5089667;28;19927;-92
2022/10/13 09:01:52;;;;;;;;;;;;;;;;;;5080865;28;19916;-92
2022/10/13 09:04:17;;;;;;;;;;;;;;;;;;5079152;28;20279;-93
2022/10/13 09:06:44;;;;;;;;;;;;;;;;;;5089641;28;19920;-94
2022/10/13 09:09:10;;;;;;;;;;;;;;;;;;5103675;28;19911;-93
2022/10/13 09:11:36;;;;;;;;;;;;;;;;;;5061842;28;19946;-94
2022/10/13 09:14:02;;;;;;;;;;;;;;;;;;5075630;28;19908;-86
2022/10/13 09:16:27;;;;;;;;;;;;;;;;;;5106911;28;19912;-89
2022/10/13 09:18:52;;;;;;;;;;;;;;;;;;5100364;28;19916;-88
2022/10/13 09:21:18;;;;;;;;;;;;;;;;;;5101397;28;19935;-87
2022/10/13 09:23:45;;;;;;;;;;;;;;;;;;5105736;28;20513;-89
2022/10/13 09:26:13;;;;;;;;;;;;;;;;;;5092691;28;19995;-90
2022/10/13 09:28:39;;;;;;;;;;;;;;;;;;5081146;28;19962;-93
2022/10/13 09:31:05;;;;;;;;;;;;;;;;;;5067499;28;20307;-89
2022/10/13 09:33:30;;;;;;;;;;;;;;;;;;5083931;28;19912;-87
2022/10/13 09:35:55;;;;;;;;;;;;;;;;;;5057786;28;19912;-89
2022/10/13 09:38:21;;;;;;;;;;;;;;;;;;5078771;28;19912;-83
2022/10/13 09:40:47;;;;;;;;;;;;;;;;;;5087732;28;20003;-87
2022/10/13 09:43:12;;;;;;;;;;;;;;;;;;5102028;28;20355;-78
2022/10/13 09:45:38;;;;;;;;;;;;;;;;;;5104336;28;19941;-77
2022/10/13 09:48:03;;;;;;;;;;;;;;;;;;5117781;28;19919;-78
2022/10/13 09:50:28;;;;;;;;;;;;;;;;;;5100189;28;20246;-78
2022/10/13 09:52:54;;;;;;;;;;;;;;;;;;5106288;28;20429;-81
2022/10/13 09:55:19;;;;;;;;;;;;;;;;;;5086552;28;19922;-78
2022/10/13 09:57:45;;;;;;;;;;;;;;;;;;5095591;28;19912;-78
2022/10/13 10:00:11;;;;;;;;;;;;;;;;;;5109722;28;19912;-81
2022/10/13 10:02:39;;;;;;;;;;;;;;;;;;5096237;28;19918;-81
2022/10/13 10:05:05;;;;;;;;;;;;;;;;;;5102126;28;19908;-79
2022/10/13 10:07:31;;;;;;;;;;;;;;;;;;5070082;28;19938;-81
2022/10/13 10:09:56;;;;;;;;;;;;;;;;;;5076802;28;19916;-78
2022/10/13 10:12:22;;;;;;;;;;;;;;;;;;5106881;28;19915;-80
2022/10/13 10:14:49;;;;;;;;;;;;;;;;;;5080913;28;19919;-81
2022/10/13 10:17:14;;;;;;;;;;;;;;;;;;5103723;28;19919;-80
2022/10/13 10:19:39;;;;;;;;;;;;;;;;;;5108878;28;19912;-79
2022/10/13 10:22:05;;;;;;;;;;;;;;;;;;5078769;28;20256;-79
2022/10/13 10:24:32;;;;;;;;;;;;;;;;;;5110360;28;20339;-79
2022/10/13 10:26:57;;;;;;;;;;;;;;;;;;5104377;28;19978;-80
2022/10/13 10:29:22;;;;;;;;;;;;;;;;;;5102208;28;19981;-80
2022/10/13 10:31:48;;;;;;;;;;;;;;;;;;5091064;28;20288;-79
2022/10/13 10:34:13;;;;;;;;;;;;;;;;;;5110636;28;19955;-79
2022/10/13 10:36:39;;;;;;;;;;;;;;;;;;5095676;28;20330;-81
2022/10/13 10:39:04;;;;;;;;;;;;;;;;;;5103614;28;19919;-81
2022/10/13 10:41:30;;;;;;;;;;;;;;;;;;5101388;28;20195;-82
2022/10/13 10:43:55;;;;;;;;;;;;;;;;;;5110715;28;20378;-78
2022/10/13 10:46:20;;;;;;;;;;;;;;;;;;5087685;28;19912;-81
2022/10/13 10:48:46;;;;;;;;;;;;;;;;;;5115662;28;20298;-79
2022/10/13 10:51:13;;;;;;;;;;;;;;;;;;5105756;28;20302;-80
2022/10/13 10:53:38;;;;;;;;;;;;;;;;;;5101156;28;19922;-80
2022/10/13 10:56:04;;;;;;;;;;;;;;;;;;5112382;28;19919;-81
2022/10/13 10:58:29;;;;;;;;;;;;;;;;;;5099538;28;19994;-81
2022/10/13 11:00:55;;;;;;;;;;;;;;;;;;5107195;28;20003;-81
2022/10/13 11:03:20;;;;;;;;;;;;;;;;;;5104786;28;20290;-79
2022/10/13 11:05:46;;;;;;;;;;;;;;;;;;5099464;28;19919;-79
2022/10/13 11:08:11;;;;;;;;;;;;;;;;;;5111216;28;19915;-79
2022/10/13 11:10:37;;;;;;;;;;;;;;;;;;5100873;28;19947;-81
2022/10/13 11:13:02;;;;;;;;;;;;;;;;;;5105444;28;19919;-82
2022/10/13 11:15:29;;;;;;;;;;;;;;;;;;5109222;28;19933;-81
2022/10/13 11:17:55;;;;;;;;;;;;;;;;;;5097144;28;20378;-80
2022/10/13 11:20:20;;;;;;;;;;;;;;;;;;5111738;28;19912;-91
2022/10/13 11:22:46;;;;;;;;;;;;;;;;;;5077265;28;19935;-87
2022/10/13 11:25:11;;;;;;;;;;;;;;;;;;5087560;28;20277;-87
2022/10/13 11:27:37;;;;;;;;;;;;;;;;;;5061890;28;19923;-83
2022/10/13 11:30:05;;;;;;;;;;;;;;;;;;5107898;28;20011;-87
2022/10/13 11:34:59;;;;;;;;;;;;;;;;;;5105802;28;20011;-85
2022/10/13 11:37:24;;;;;;;;;;;;;;;;;;5105574;28;20354;-85
2022/10/13 11:39:51;;;;;;;;;;;;;;;;;;5098625;28;19912;-87
2022/10/13 11:42:18;;;;;;;;;;;;;;;;;;5110130;28;20263;-84
2022/10/13 11:44:44;;;;;;;;;;;;;;;;;;5100896;28;19916;-84
2022/10/13 11:47:10;;;;;;;;;;;;;;;;;;5107726;28;19912;-82
2022/10/13 11:49:35;;;;;;;;;;;;;;;;;;5115575;28;19907;-82
2022/10/13 11:52:01;;;;;;;;;;;;;;;;;;5117092;28;19911;-82
2022/10/13 11:54:26;;;;;;;;;;;;;;;;;;5097308;28;20019;-80
2022/10/13 11:56:52;;;;;;;;;;;;;;;;;;5106875;28;19916;-80
2022/10/13 11:59:17;;;;;;;;;;;;;;;;;;5104073;28;20294;-80
2022/10/13 12:01:42;;;;;;;;;;;;;;;;;;5098317;28;19920;-79
2022/10/13 12:04:08;;;;;;;;;;;;;;;;;;5111654;28;19916;-79
2022/10/13 12:06:34;;;;;;;;;;;;;;;;;;5108625;28;20378;-80
2022/10/13 12:08:59;;;;;;;;;;;;;;;;;;5102568;28;20347;-81
2022/10/13 12:11:25;;;;;;;;;;;;;;;;;;5101248;28;19912;-80
2022/10/13 12:13:50;;;;;;;;;;;;;;;;;;5109253;28;20263;-82
2022/10/13 12:16:16;;;;;;;;;;;;;;;;;;5097154;28;20446;-80
2022/10/13 12:18:44;;;;;;;;;;;;;;;;;;5107392;28;20391;-81
2022/10/13 12:21:10;;;;;;;;;;;;;;;;;;5102763;28;19911;-81
2022/10/13 12:23:35;;;;;;;;;;;;;;;;;;5102202;28;19923;-80
2022/10/13 12:26:01;;;;;;;;;;;;;;;;;;5110387;28;19908;-81
2022/10/13 12:28:26;;;;;;;;;;;;;;;;;;5093800;28;20018;-78
2022/10/13 12:30:51;;;;;;;;;;;;;;;;;;5100168;28;19916;-81
2022/10/13 12:33:17;;;;;;;;;;;;;;;;;;5092237;28;19915;-80
2022/10/13 12:35:42;;;;;;;;;;;;;;;;;;5080649;28;19916;-81
2022/10/13 12:38:08;;;;;;;;;;;;;;;;;;5109856;28;19912;-80
2022/10/13 12:40:33;;;;;;;;;;;;;;;;;;5097080;28;19915;-79
2022/10/13 12:42:59;;;;;;;;;;;;;;;;;;5113113;28;20007;-80
2022/10/13 12:45:24;;;;;;;;;;;;;;;;;;5100740;28;20286;-80
2022/10/13 12:47:49;;;;;;;;;;;;;;;;;;5107684;28;19947;-79
2022/10/13 12:50:15;;;;;;;;;;;;;;;;;;5110474;28;20319;-80
2022/10/13 12:52:40;;;;;;;;;;;;;;;;;;5099046;28;19916;-82
2022/10/13 12:55:06;;;;;;;;;;;;;;;;;;5101965;28;19912;-81
2022/10/13 12:57:36;;;;;;;;;;;;;;;;;;5087701;28;19912;-79
2022/10/13 13:00:02;;;;;;;;;;;;;;;;;;5094457;28;19984;-80
2022/10/13 13:02:27;;;;;;;;;;;;;;;;;;5106893;28;19977;-80
2022/10/13 13:04:53;;;;;;;;;;;;;;;;;;5100172;28;20551;-80
2022/10/13 13:07:18;;;;;;;;;;;;;;;;;;5112378;28;19916;-80
2022/10/13 13:09:44;;;;;;;;;;;;;;;;;;5097183;28;20374;-81
2022/10/13 13:12:10;;;;;;;;;;;;;;;;;;5107354;28;20235;-80
2022/10/13 13:14:35;;;;;;;;;;;;;;;;;;5096975;28;19935;-80
2022/10/13 13:17:00;;;;;;;;;;;;;;;;;;5084906;28;20259;-80
2022/10/13 13:19:29;;;;;;;;;;;;;;;;;;5110531;28;19964;-79
2022/10/13 13:21:54;;;;;;;;;;;;;;;;;;5097268;28;19912;-81
2022/10/13 13:24:20;;;;;;;;;;;;;;;;;;5107280;28;20401;-80
2022/10/13 13:26:45;;;;;;;;;;;;;;;;;;5098915;28;19912;-81
2022/10/13 13:29:10;;;;;;;;;;;;;;;;;;5100285;28;20328;-81
2022/10/13 13:31:36;;;;;;;;;;;;;;;;;;5105495;28;19916;-81
2022/10/13 13:34:01;;;;;;;;;;;;;;;;;;5104510;28;19918;-82
2022/10/13 13:36:27;;;;;;;;;;;;;;;;;;5079785;28;19967;-80
2022/10/13 13:38:52;;;;;;;;;;;;;;;;;;5077364;28;19913;-85
2022/10/13 13:41:18;;;;;;;;;;;;;;;;;;5071675;28;19911;-83
2022/10/13 13:43:43;;;;;;;;;;;;;;;;;;5112749;28;19987;-82
2022/10/13 13:46:08;;;;;;;;;;;;;;;;;;5100761;28;19968;-82
2022/10/13 13:48:34;;;;;;;;;;;;;;;;;;5111508;28;19935;-82
2022/10/13 13:51:00;;;;;;;;;;;;;;;;;;5096513;28;19999;-82
2022/10/13 13:53:25;;;;;;;;;;;;;;;;;;5127153;28;19919;-83
2022/10/13 13:55:51;;;;;;;;;;;;;;;;;;5105620;28;19916;-85
2022/10/13 13:58:16;;;;;;;;;;;;;;;;;;5112159;28;19916;-85
2022/10/13 14:00:42;;;;;;;;;;;;;;;;;;5101890;28;19958;-83
2022/10/13 14:03:08;;;;;;;;;;;;;;;;;;5106098;28;19916;-81
2022/10/13 14:05:33;;;;;;;;;;;;;;;;;;5110982;28;19912;-88
2022/10/13 14:07:58;;;;;;;;;;;;;;;;;;5155409;23;19928;-89
2022/10/13 14:10:24;;;;;;;;;;;;;;;;;;5058570;28;19939;-84
2022/10/13 14:12:49;;;;;;;;;;;;;;;;;;5082559;28;19984;-85
2022/10/13 14:15:15;;;;;;;;;;;;;;;;;;5064174;28;20392;-85
2022/10/13 14:17:40;;;;;;;;;;;;;;;;;;5066882;28;19912;-86
2022/10/13 14:20:08;;;;;;;;;;;;;;;;;;5061867;28;19919;-86
2022/10/13 14:22:36;;;;;;;;;;;;;;;;;;5088929;28;19917;-86
2022/10/13 14:25:04;;;;;;;;;;;;;;;;;;5057748;28;19916;-83
2022/10/13 14:27:30;;;;;;;;;;;;;;;;;;5087476;28;19918;-83
2022/10/13 14:29:58;;;;;;;;;;;;;;;;;;5079325;28;19936;-88
2022/10/13 14:32:23;;;;;;;;;;;;;;;;;;5087682;28;19912;-84
2022/10/13 14:34:49;;;;;;;;;;;;;;;;;;5070899;28;19967;-86
2022/10/13 14:37:14;;;;;;;;;;;;;;;;;;5076011;28;19913;-85
2022/10/13 14:39:40;;;;;;;;;;;;;;;;;;5090528;28;20069;-84
2022/10/13 14:42:05;;;;;;;;;;;;;;;;;;5058788;28;20497;-84
2022/10/13 14:44:30;;;;;;;;;;;;;;;;;;5077500;28;19916;-83
2022/10/13 14:46:59;;;;;;;;;;;;;;;;;;5085654;28;20298;-83
2022/10/13 14:49:25;;;;;;;;;;;;;;;;;;5088205;28;19912;-85
2022/10/13 14:51:51;;;;;;;;;;;;;;;;;;5078992;28;20390;-86
2022/10/13 14:54:16;;;;;;;;;;;;;;;;;;5099169;28;20401;-86
2022/10/13 14:56:43;;;;;;;;;;;;;;;;;;5093206;28;19958;-84
2022/10/13 14:59:09;;;;;;;;;;;;;;;;;;5088752;28;19959;-85
2022/10/13 15:01:38;;;;;;;;;;;;;;;;;;5089707;28;19912;-86
2022/10/13 15:04:06;;;;;;;;;;;;;;;;;;5075238;28;19920;-84
2022/10/13 15:06:33;;;;;;;;;;;;;;;;;;5074410;28;19958;-86
2022/10/13 15:08:58;;;;;;;;;;;;;;;;;;5075315;28;20352;-84
2022/10/13 15:11:24;;;;;;;;;;;;;;;;;;5057468;28;19912;-85
2022/10/13 15:13:49;;;;;;;;;;;;;;;;;;5056795;28;19912;-84
2022/10/13 15:16:14;;;;;;;;;;;;;;;;;;5040410;28;19955;-84
2022/10/13 15:18:40;;;;;;;;;;;;;;;;;;5041184;28;19919;-83
2022/10/13 15:21:06;;;;;;;;;;;;;;;;;;5056151;28;20291;-85
2022/10/13 15:23:31;;;;;;;;;;;;;;;;;;5039863;28;20464;-85
2022/10/13 15:25:56;;;;;;;;;;;;;;;;;;5057096;28;20549;-85
2022/10/13 15:28:22;;;;;;;;;;;;;;;;;;5056727;28;20007;-85
2022/10/13 15:30:47;;;;;;;;;;;;;;;;;;5056550;28;19916;-85
2022/10/13 15:33:15;;;;;;;;;;;;;;;;;;5056575;28;20371;-84
2022/10/13 15:35:40;;;;;;;;;;;;;;;;;;5073169;28;19927;-84
2022/10/13 15:38:06;;;;;;;;;;;;;;;;;;5055879;28;19916;-84
2022/10/13 15:40:32;;;;;;;;;;;;;;;;;;5074597;28;19924;-85
2022/10/13 15:42:58;;;;;;;;;;;;;;;;;;5074080;28;19923;-84
2022/10/13 15:45:23;;;;;;;;;;;;;;;;;;5072738;28;19912;-83
2022/10/13 15:47:48;;;;;;;;;;;;;;;;;;5069045;28;19912;-83
2022/10/13 15:50:14;;;;;;;;;;;;;;;;;;5085331;28;20346;-83
2022/10/13 15:52:39;;;;;;;;;;;;;;;;;;5084498;28;20341;-82
2022/10/13 15:55:05;;;;;;;;;;;;;;;;;;5086583;28;20345;-86
2022/10/13 15:57:30;;;;;;;;;;;;;;;;;;5066804;28;19913;-87
2022/10/13 15:59:56;;;;;;;;;;;;;;;;;;5070645;28;19963;-86
2022/10/13 16:02:23;;;;;;;;;;;;;;;;;;5088035;28;19940;-84
2022/10/13 16:04:48;;;;;;;;;;;;;;;;;;5087013;28;19923;-85
2022/10/13 16:07:13;;;;;;;;;;;;;;;;;;5059975;28;19913;-84
2022/10/13 16:09:39;;;;;;;;;;;;;;;;;;5059309;28;19977;-84
2022/10/13 16:12:04;;;;;;;;;;;;;;;;;;5087615;28;20397;-77
2022/10/13 16:14:29;;;;;;;;;;;;;;;;;;5081902;28;19994;-76
2022/10/13 16:16:56;;;;;;;;;;;;;;;;;;5079542;28;19956;-76
2022/10/13 16:19:21;;;;;;;;;;;;;;;;;;5088236;28;19997;-76
2022/10/13 16:21:47;;;;;;;;;;;;;;;;;;5076588;28;19919;-77
2022/10/13 16:24:13;;;;;;;;;;;;;;;;;;5086804;28;19916;-84
2022/10/13 16:26:38;;;;;;;;;;;;;;;;;;5065614;28;20462;-76
2022/10/13 16:29:04;;;;;;;;;;;;;;;;;;5077965;28;20426;-76
2022/10/13 16:31:29;;;;;;;;;;;;;;;;;;5088915;28;20359;-77
2022/10/13 16:33:55;;;;;;;;;;;;;;;;;;5076861;28;20003;-77
2022/10/13 16:36:21;;;;;;;;;;;;;;;;;;5073045;28;19935;-87